Queen Of Nanaimo — VCNX — position and weather

sailwx.info

Track history (hours):
 
Tides and Currents Weather Stations Pressure Air Temp Water Temp Dewpoint Dewpoint Depression Visibility Wind Speed Wind Dir Waves Ship Positions

Queen Of Nanaimo

Last reported at 2015-May-25 14:32 UTC. Time now 2015-May-25 15:24 UTC.
Position N 48°51' W 123°20'.

Length 130 m; draft 4 m.

Type: Passenger vessel. MMSI: 316001254.

Date/timePositionNaut miles runAvg speedWind from/ knotsBaromVisibWave heightAir tempDewpointWater temp
2015-May-25 14:32N 48°51' W 123°20'3 3.1
2015-May-25 13:31N 48°50' W 123°25'1 0.1
2015-May-25 06:05N 48°51' W 123°25'611.6
2015-May-25 05:33N 48°54' W 123°17'9 9.1
2015-May-25 04:33N 49°00' W 123°08'1312.2
2015-May-25 03:32N 48°51' W 123°20'2 2.3
2015-May-25 02:33N 48°53' W 123°18'1010.4
2015-May-25 01:33N 49°00' W 123°08'10 9.5
2015-May-25 00:33N 48°53' W 123°17'3 2.9
2015-May-24 23:32N 48°51' W 123°20'3 0.9
2015-May-24 20:19N 48°48' W 123°19'4 5.0
2015-May-24 19:33N 48°52' W 123°21'8 8.2
2015-May-24 18:33N 48°58' W 123°12'4 4.1
2015-May-24 17:33N 49°00' W 123°08'1010.3
2015-May-24 16:34N 48°53' W 123°18'2 2.1
2015-May-24 15:30N 48°51' W 123°20'0 0.0
2015-May-24 05:16N 48°51' W 123°20'2 2.7
2015-May-24 04:32N 48°53' W 123°19'1110.9
2015-May-24 03:33N 49°00' W 123°08'0 0.0
2015-May-24 02:33N 49°00' W 123°08'0 0.5
2015-May-24 01:33N 48°60' W 123°08'1010.2
2015-May-24 00:33N 48°53' W 123°19'5 4.3
2015-May-23 23:29N 48°48' W 123°19'4 1.2
2015-May-23 20:27N 48°51' W 123°21'1213.1
2015-May-23 19:34N 48°60' W 123°09'5 5.0
2015-May-23 18:34N 48°56' W 123°13'7 6.0
2015-May-23 17:28N 48°51' W 123°20'2 2.1
2015-May-23 16:33N 48°53' W 123°19'1110.7
2015-May-23 15:34N 49°00' W 123°08'5 4.5
2015-May-23 14:34N 48°57' W 123°12'11 8.7
2015-May-23 13:16N 48°51' W 123°27'1 0.2
2015-May-23 05:12N 48°50' W 123°25'5 7.1
2015-May-23 04:32N 48°48' W 123°19'6 5.9
2015-May-23 03:33N 48°54' W 123°18'9 9.4
2015-May-23 02:33N 49°00' W 123°08'7 6.7
2015-May-23 01:33N 48°55' W 123°14'5 5.1
2015-May-23 00:32N 48°52' W 123°20'6 5.9
2015-May-22 23:33N 48°56' W 123°15'6 6.2
2015-May-22 22:33N 49°00' W 123°08'1212.1
2015-May-22 21:33N 48°52' W 123°20'3 2.8
2015-May-22 20:20N 48°50' W 123°25'5 5.9
2015-May-22 19:31N 48°48' W 123°19'5 4.9
2015-May-22 18:34N 48°53' W 123°19'8 8.5
2015-May-22 17:33N 48°59' W 123°10'2 2.2
2015-May-22 16:33N 49°00' W 123°08'10 9.9
2015-May-22 15:34N 48°53' W 123°18'3 2.5
2015-May-22 14:29N 48°51' W 123°20'4 3.8
2015-May-22 13:24N 48°51' W 123°26'1 0.2
2015-May-22 05:06N 48°50' W 123°25'4 5.9
2015-May-22 04:26N 48°48' W 123°20'4 5.0
2015-May-22 03:33N 48°52' W 123°18'9 9.2
2015-May-22 02:33N 48°59' W 123°10'1 1.5
2015-May-22 01:33N 49°00' W 123°08'1110.6
2015-May-22 00:33N 48°53' W 123°19'3 2.5
2015-May-21 23:29N 48°50' W 123°20'3 3.3
2015-May-21 22:32N 48°50' W 123°25'2 0.7
2015-May-21 20:22N 48°51' W 123°27'6 7.5
2015-May-21 19:33N 48°48' W 123°19'4 3.7
2015-May-21 18:33N 48°52' W 123°20'9 9.0
2015-May-21 17:33N 48°58' W 123°11'2 2.1
2015-May-21 16:33N 48°60' W 123°09'10 9.7
2015-May-21 15:33N 48°52' W 123°18'5 3.8
2015-May-21 14:18N 48°48' W 123°20'4 5.0
2015-May-21 13:28N 48°50' W 123°25'0 0.1
2015-May-21 05:13N 48°51' W 123°25'5 6.7
2015-May-21 04:32N 48°48' W 123°20'5 5.0
2015-May-21 03:33N 48°53' W 123°19'1110.6
2015-May-21 02:33N 49°00' W 123°08'3 2.5
2015-May-21 01:33N 48°58' W 123°10'8 8.1
2015-May-21 00:33N 48°53' W 123°19'2 2.2
2015-May-20 23:32N 48°51' W 123°20'3 3.3
2015-May-20 22:31N 48°50' W 123°25'1 0.6
2015-May-20 20:28N 48°51' W 123°27'6 4.5
2015-May-20 19:13N 48°48' W 123°20'4 5.7
2015-May-20 18:33N 48°52' W 123°20'8 8.0
2015-May-20 17:34N 48°58' W 123°12'4 3.9
2015-May-20 16:33N 49°00' W 123°08'1010.2
2015-May-20 15:33N 48°53' W 123°18'2 2.3
2015-May-20 14:32N 48°51' W 123°20'3 3.4
2015-May-20 13:33N 48°49' W 123°24'3 2.5
2015-May-20 12:25N 48°51' W 123°27'0 0.0
2015-May-20 11:32N 48°51' W 123°27'0 0.0
2015-May-20 10:29N 48°51' W 123°27'0 0.0
2015-May-20 09:26N 48°51' W 123°27'0 0.0
2015-May-20 08:12N 48°51' W 123°27'6 1.5
2015-May-20 04:27N 48°48' W 123°20'5 5.4
2015-May-20 03:33N 48°53' W 123°19'9 9.3
2015-May-20 02:33N 48°60' W 123°10'1 0.7
2015-May-20 01:34N 48°59' W 123°09'9 9.4
2015-May-20 00:33N 48°53' W 123°19'2 2.3
2015-May-19 23:29N 48°50' W 123°20'4 1.4
2015-May-19 20:19N 48°51' W 123°27'6 6.9
2015-May-19 19:26N 48°48' W 123°19'4 4.2
2015-May-19 18:34N 48°52' W 123°19'10 9.6
2015-May-19 17:34N 48°59' W 123°09'1 1.2
2015-May-19 16:33N 49°00' W 123°08'1010.3
2015-May-19 15:33N 48°53' W 123°19'3 2.6
2015-May-19 14:25N 48°50' W 123°20'3 3.4
2015-May-19 13:31N 48°50' W 123°25'1 0.1
2015-May-19 06:32N 48°51' W 123°25'1313.8
2015-May-19 05:34N 48°59' W 123°09'2 2.3
2015-May-19 04:32N 48°57' W 123°11'9 7.8
2015-May-19 03:26N 48°51' W 123°20'3 2.9
2015-May-19 02:33N 48°53' W 123°18'10 9.9
2015-May-19 01:33N 49°00' W 123°08'8 8.4
2015-May-19 00:33N 48°54' W 123°16'4 4.1
2015-May-18 23:32N 48°51' W 123°21'3 0.8
2015-May-18 19:31N 48°48' W 123°19'4 3.9
2015-May-18 18:33N 48°52' W 123°21'9 9.4
2015-May-18 17:33N 48°58' W 123°11'2 2.0
2015-May-18 16:33N 48°59' W 123°08'10 9.6
2015-May-18 15:33N 48°53' W 123°19'2 2.0
2015-May-18 14:32N 48°51' W 123°20'3 3.2
2015-May-18 13:34N 48°49' W 123°24'3 3.1
2015-May-18 12:33N 48°51' W 123°27'10 1.4
2015-May-18 05:16N 48°57' W 123°13'3 3.4
2015-May-18 04:17N 48°59' W 123°09'1012.8
2015-May-18 03:29N 48°52' W 123°20'1 0.2
2015-May-17 23:08N 48°51' W 123°20'5 5.6
2015-May-17 22:19N 48°51' W 123°27'0 0.0
2015-May-17 21:32N 48°51' W 123°27'6 5.5
2015-May-17 20:26N 48°48' W 123°19'5 3.9
2015-May-17 19:13N 48°53' W 123°19'710.8
2015-May-17 18:33N 48°58' W 123°12'4 3.5
2015-May-17 17:31N 49°00' W 123°08'1010.5
2015-May-17 16:33N 48°53' W 123°18'2 2.3
2015-May-17 15:30N 48°51' W 123°20'3 3.5
2015-May-17 14:31N 48°50' W 123°25'2 0.6
2015-May-17 11:28N 48°51' W 123°27'0 0.0
2015-May-17 10:32N 48°51' W 123°27'0 0.0
2015-May-17 09:33N 48°51' W 123°27'4 1.1
2015-May-17 05:33N 48°51' W 123°20'3 2.7
2015-May-17 04:33N 48°53' W 123°18'10 9.9
2015-May-17 03:33N 49°00' W 123°08'0 0.0
2015-May-17 02:33N 49°00' W 123°08'0 0.1
2015-May-17 01:33N 49°00' W 123°08'1110.6
2015-May-17 00:33N 48°53' W 123°19'5 4.1
2015-May-16 23:26N 48°48' W 123°19'5 2.4
2015-May-16 21:11N 48°51' W 123°26'5 7.9
2015-May-16 20:34N 48°52' W 123°19'1111.3
2015-May-16 19:34N 49°00' W 123°08'6 5.7
2015-May-16 18:34N 48°56' W 123°13'7 6.0
2015-May-16 17:24N 48°51' W 123°20'4 4.3
2015-May-16 16:34N 48°54' W 123°17'9 9.0
2015-May-16 15:34N 49°00' W 123°08'6 5.9
2015-May-16 14:33N 48°56' W 123°13'9 1.0
2015-May-16 05:32N 48°48' W 123°21'5 4.9
2015-May-16 04:33N 48°53' W 123°19'10 9.6
2015-May-16 03:34N 48°60' W 123°09'1 0.7
2015-May-16 02:33N 48°60' W 123°08'1211.6
2015-May-16 01:33N 48°51' W 123°20'2 2.0
2015-May-16 00:33N 48°53' W 123°19'1110.7
2015-May-15 23:33N 49°00' W 123°08'0 0.1
2015-May-15 22:33N 49°00' W 123°08'1411.8
2015-May-15 21:22N 48°51' W 123°24'2 2.0
2015-May-15 20:29N 48°51' W 123°27'6 5.8
2015-May-15 19:26N 48°48' W 123°19'4 4.2
2015-May-15 18:33N 48°52' W 123°19'8 8.4
2015-May-15 17:34N 48°59' W 123°11'3 3.0
2015-May-15 16:33N 49°00' W 123°08'10 9.7
2015-May-15 15:33N 48°53' W 123°17'  
Track history (hours):
 
Tides and Currents Weather Stations Pressure Air Temp Water Temp Dewpoint Dewpoint Depression Visibility Wind Speed Wind Dir Waves Ship Positions

Queen Of Nanaimo

Last reported at 2015-May-25 14:32 UTC. Time now 2015-May-25 15:24 UTC.
Position N 48°51' W 123°20'.

Length 130 m; draft 4 m.

Type: Passenger vessel. MMSI: 316001254.

Date/timePositionNaut miles runAvg speedWind from/ knotsBaromVisibWave heightAir tempDewpointWater temp
2015-May-25 14:32N 48°51' W 123°20'3 3.1
2015-May-25 13:31N 48°50' W 123°25'1 0.1
2015-May-25 06:05N 48°51' W 123°25'611.6
2015-May-25 05:33N 48°54' W 123°17'9 9.1
2015-May-25 04:33N 49°00' W 123°08'1312.2
2015-May-25 03:32N 48°51' W 123°20'2 2.3
2015-May-25 02:33N 48°53' W 123°18'1010.4
2015-May-25 01:33N 49°00' W 123°08'10 9.5
2015-May-25 00:33N 48°53' W 123°17'3 2.9
2015-May-24 23:32N 48°51' W 123°20'3 0.9
2015-May-24 20:19N 48°48' W 123°19'4 5.0
2015-May-24 19:33N 48°52' W 123°21'8 8.2
2015-May-24 18:33N 48°58' W 123°12'4 4.1
2015-May-24 17:33N 49°00' W 123°08'1010.3
2015-May-24 16:34N 48°53' W 123°18'2 2.1
2015-May-24 15:30N 48°51' W 123°20'0 0.0
2015-May-24 05:16N 48°51' W 123°20'2 2.7
2015-May-24 04:32N 48°53' W 123°19'1110.9
2015-May-24 03:33N 49°00' W 123°08'0 0.0
2015-May-24 02:33N 49°00' W 123°08'0 0.5
2015-May-24 01:33N 48°60' W 123°08'1010.2
2015-May-24 00:33N 48°53' W 123°19'5 4.3
2015-May-23 23:29N 48°48' W 123°19'4 1.2
2015-May-23 20:27N 48°51' W 123°21'1213.1
2015-May-23 19:34N 48°60' W 123°09'5 5.0
2015-May-23 18:34N 48°56' W 123°13'7 6.0
2015-May-23 17:28N 48°51' W 123°20'2 2.1
2015-May-23 16:33N 48°53' W 123°19'1110.7
2015-May-23 15:34N 49°00' W 123°08'5 4.5
2015-May-23 14:34N 48°57' W 123°12'11 8.7
2015-May-23 13:16N 48°51' W 123°27'1 0.2
2015-May-23 05:12N 48°50' W 123°25'5 7.1
2015-May-23 04:32N 48°48' W 123°19'6 5.9
2015-May-23 03:33N 48°54' W 123°18'9 9.4
2015-May-23 02:33N 49°00' W 123°08'7 6.7
2015-May-23 01:33N 48°55' W 123°14'5 5.1
2015-May-23 00:32N 48°52' W 123°20'6 5.9
2015-May-22 23:33N 48°56' W 123°15'6 6.2
2015-May-22 22:33N 49°00' W 123°08'1212.1
2015-May-22 21:33N 48°52' W 123°20'3 2.8
2015-May-22 20:20N 48°50' W 123°25'5 5.9
2015-May-22 19:31N 48°48' W 123°19'5 4.9
2015-May-22 18:34N 48°53' W 123°19'8 8.5
2015-May-22 17:33N 48°59' W 123°10'2 2.2
2015-May-22 16:33N 49°00' W 123°08'10 9.9
2015-May-22 15:34N 48°53' W 123°18'3 2.5
2015-May-22 14:29N 48°51' W 123°20'4 3.8
2015-May-22 13:24N 48°51' W 123°26'1 0.2
2015-May-22 05:06N 48°50' W 123°25'4 5.9
2015-May-22 04:26N 48°48' W 123°20'4 5.0
2015-May-22 03:33N 48°52' W 123°18'9 9.2
2015-May-22 02:33N 48°59' W 123°10'1 1.5
2015-May-22 01:33N 49°00' W 123°08'1110.6
2015-May-22 00:33N 48°53' W 123°19'3 2.5
2015-May-21 23:29N 48°50' W 123°20'3 3.3
2015-May-21 22:32N 48°50' W 123°25'2 0.7
2015-May-21 20:22N 48°51' W 123°27'6 7.5
2015-May-21 19:33N 48°48' W 123°19'4 3.7
2015-May-21 18:33N 48°52' W 123°20'9 9.0
2015-May-21 17:33N 48°58' W 123°11'2 2.1
2015-May-21 16:33N 48°60' W 123°09'10 9.7
2015-May-21 15:33N 48°52' W 123°18'5 3.8
2015-May-21 14:18N 48°48' W 123°20'4 5.0
2015-May-21 13:28N 48°50' W 123°25'0 0.1
2015-May-21 05:13N 48°51' W 123°25'5 6.7
2015-May-21 04:32N 48°48' W 123°20'5 5.0
2015-May-21 03:33N 48°53' W 123°19'1110.6
2015-May-21 02:33N 49°00' W 123°08'3 2.5
2015-May-21 01:33N 48°58' W 123°10'8 8.1
2015-May-21 00:33N 48°53' W 123°19'2 2.2
2015-May-20 23:32N 48°51' W 123°20'3 3.3
2015-May-20 22:31N 48°50' W 123°25'1 0.6
2015-May-20 20:28N 48°51' W 123°27'6 4.5
2015-May-20 19:13N 48°48' W 123°20'4 5.7
2015-May-20 18:33N 48°52' W 123°20'8 8.0
2015-May-20 17:34N 48°58' W 123°12'4 3.9
2015-May-20 16:33N 49°00' W 123°08'1010.2
2015-May-20 15:33N 48°53' W 123°18'2 2.3
2015-May-20 14:32N 48°51' W 123°20'3 3.4
2015-May-20 13:33N 48°49' W 123°24'3 2.5
2015-May-20 12:25N 48°51' W 123°27'0 0.0
2015-May-20 11:32N 48°51' W 123°27'0 0.0
2015-May-20 10:29N 48°51' W 123°27'0 0.0
2015-May-20 09:26N 48°51' W 123°27'0 0.0
2015-May-20 08:12N 48°51' W 123°27'6 1.5
2015-May-20 04:27N 48°48' W 123°20'5 5.4
2015-May-20 03:33N 48°53' W 123°19'9 9.3
2015-May-20 02:33N 48°60' W 123°10'1 0.7
2015-May-20 01:34N 48°59' W 123°09'9 9.4
2015-May-20 00:33N 48°53' W 123°19'2 2.3
2015-May-19 23:29N 48°50' W 123°20'4 1.4
2015-May-19 20:19N 48°51' W 123°27'6 6.9
2015-May-19 19:26N 48°48' W 123°19'4 4.2
2015-May-19 18:34N 48°52' W 123°19'10 9.6
2015-May-19 17:34N 48°59' W 123°09'1 1.2
2015-May-19 16:33N 49°00' W 123°08'1010.3
2015-May-19 15:33N 48°53' W 123°19'3 2.6
2015-May-19 14:25N 48°50' W 123°20'3 3.4
2015-May-19 13:31N 48°50' W 123°25'1 0.1
2015-May-19 06:32N 48°51' W 123°25'1313.8
2015-May-19 05:34N 48°59' W 123°09'2 2.3
2015-May-19 04:32N 48°57' W 123°11'9 7.8
2015-May-19 03:26N 48°51' W 123°20'3 2.9
2015-May-19 02:33N 48°53' W 123°18'10 9.9
2015-May-19 01:33N 49°00' W 123°08'8 8.4
2015-May-19 00:33N 48°54' W 123°16'4 4.1
2015-May-18 23:32N 48°51' W 123°21'3 0.8
2015-May-18 19:31N 48°48' W 123°19'4 3.9
2015-May-18 18:33N 48°52' W 123°21'9 9.4
2015-May-18 17:33N 48°58' W 123°11'2 2.0
2015-May-18 16:33N 48°59' W 123°08'10 9.6
2015-May-18 15:33N 48°53' W 123°19'2 2.0
2015-May-18 14:32N 48°51' W 123°20'3 3.2
2015-May-18 13:34N 48°49' W 123°24'3 3.1
2015-May-18 12:33N 48°51' W 123°27'10 1.4
2015-May-18 05:16N 48°57' W 123°13'3 3.4
2015-May-18 04:17N 48°59' W 123°09'1012.8
2015-May-18 03:29N 48°52' W 123°20'1 0.2
2015-May-17 23:08N 48°51' W 123°20'5 5.6
2015-May-17 22:19N 48°51' W 123°27'0 0.0
2015-May-17 21:32N 48°51' W 123°27'6 5.5
2015-May-17 20:26N 48°48' W 123°19'5 3.9
2015-May-17 19:13N 48°53' W 123°19'710.8
2015-May-17 18:33N 48°58' W 123°12'4 3.5
2015-May-17 17:31N 49°00' W 123°08'1010.5
2015-May-17 16:33N 48°53' W 123°18'2 2.3
2015-May-17 15:30N 48°51' W 123°20'3 3.5
2015-May-17 14:31N 48°50' W 123°25'2 0.6
2015-May-17 11:28N 48°51' W 123°27'0 0.0
2015-May-17 10:32N 48°51' W 123°27'0 0.0
2015-May-17 09:33N 48°51' W 123°27'4 1.1
2015-May-17 05:33N 48°51' W 123°20'3 2.7
2015-May-17 04:33N 48°53' W 123°18'10 9.9
2015-May-17 03:33N 49°00' W 123°08'0 0.0
2015-May-17 02:33N 49°00' W 123°08'0 0.1
2015-May-17 01:33N 49°00' W 123°08'1110.6
2015-May-17 00:33N 48°53' W 123°19'5 4.1
2015-May-16 23:26N 48°48' W 123°19'5 2.4
2015-May-16 21:11N 48°51' W 123°26'5 7.9
2015-May-16 20:34N 48°52' W 123°19'1111.3
2015-May-16 19:34N 49°00' W 123°08'6 5.7
2015-May-16 18:34N 48°56' W 123°13'7 6.0
2015-May-16 17:24N 48°51' W 123°20'4 4.3
2015-May-16 16:34N 48°54' W 123°17'9 9.0
2015-May-16 15:34N 49°00' W 123°08'6 5.9
2015-May-16 14:33N 48°56' W 123°13'9 1.0
2015-May-16 05:32N 48°48' W 123°21'5 4.9
2015-May-16 04:33N 48°53' W 123°19'10 9.6
2015-May-16 03:34N 48°60' W 123°09'1 0.7
2015-May-16 02:33N 48°60' W 123°08'1211.6
2015-May-16 01:33N 48°51' W 123°20'2 2.0
2015-May-16 00:33N 48°53' W 123°19'1110.7
2015-May-15 23:33N 49°00' W 123°08'0 0.1
2015-May-15 22:33N 49°00' W 123°08'1411.8
2015-May-15 21:22N 48°51' W 123°24'2 2.0
2015-May-15 20:29N 48°51' W 123°27'6 5.8
2015-May-15 19:26N 48°48' W 123°19'4 4.2
2015-May-15 18:33N 48°52' W 123°19'8 8.4
2015-May-15 17:34N 48°59' W 123°11'3 3.0
2015-May-15 16:33N 49°00' W 123°08'10 9.7
2015-May-15 15:33N 48°53' W 123°17'  

Dump ship's entire track history